Time;durP1;ratioP1;P1;durP2;ratioP2;P2;SDS_P1;SDS_P2;PMS_P1;PMS_P2;Temp;Humidity;BMP_temperature;BMP_pressure;BME280_temperature;BME280_humidity;BME280_pressure;Samples;Min_cycle;Max_cycle;Signal;HPM_P1;HPM_P2
2022/06/19 00:00:30;;;;;;;4.60;4.30;;;;;;;16.98;100.00;98652.00;5034214;28;20195;-60
2022/06/19 00:02:56;;;;;;;5.63;4.50;;;;;;;16.89;100.00;98646.75;5034388;28;20194;-60
2022/06/19 00:05:21;;;;;;;5.65;4.55;;;;;;;16.83;100.00;98642.91;5034205;28;20167;-60
2022/06/19 00:07:47;;;;;;;4.30;4.00;;;;;;;16.78;100.00;98639.03;5034343;28;20197;-60
2022/06/19 00:10:13;;;;;;;5.38;4.47;;;;;;;16.79;100.00;98641.53;5034501;28;20232;-60
2022/06/19 00:12:39;;;;;;;4.85;3.90;;;;;;;16.75;100.00;98640.16;5034037;28;20205;-60
2022/06/19 00:15:05;;;;;;;6.78;4.25;;;;;;;16.83;100.00;98649.91;5034405;28;20170;-60
2022/06/19 00:17:31;;;;;;;4.88;4.18;;;;;;;16.84;100.00;98649.78;5033907;28;20178;-60
2022/06/19 00:19:57;;;;;;;7.30;3.90;;;;;;;16.81;100.00;98646.63;5034280;28;20176;-60
2022/06/19 00:22:22;;;;;;;4.13;3.83;;;;;;;16.77;100.00;98647.84;5033820;28;20189;-60
2022/06/19 00:24:47;;;;;;;4.45;4.05;;;;;;;16.71;100.00;98651.84;5034258;28;20267;-60
2022/06/19 00:27:13;;;;;;;5.68;4.75;;;;;;;16.66;100.00;98650.59;5034009;28;20170;-60
2022/06/19 00:29:38;;;;;;;5.22;4.15;;;;;;;16.57;100.00;98646.19;5033562;28;20255;-60
2022/06/19 00:32:07;;;;;;;4.55;4.22;;;;;;;16.53;100.00;98645.66;5033721;28;20185;-60
2022/06/19 00:34:34;;;;;;;5.40;4.70;;;;;;;16.50;100.00;98639.88;5033692;28;20189;-60
2022/06/19 00:37:01;;;;;;;5.63;4.60;;;;;;;16.50;100.00;98645.91;5033776;28;20178;-60
2022/06/19 00:39:28;;;;;;;4.82;4.45;;;;;;;16.57;100.00;98639.16;5033466;28;20686;-60
2022/06/19 00:41:54;;;;;;;5.45;4.47;;;;;;;16.57;100.00;98633.94;5033360;28;20181;-60
2022/06/19 00:44:21;;;;;;;5.05;4.60;;;;;;;16.60;100.00;98630.22;5033357;28;20178;-60
2022/06/19 00:46:53;;;;;;;5.53;5.00;;;;;;;16.58;100.00;98625.16;5033315;28;20188;-60
2022/06/19 00:49:25;;;;;;;6.38;4.22;;;;;;;16.59;100.00;98624.19;5033544;28;20584;-60
2022/06/19 00:51:59;;;;;;;4.70;4.30;;;;;;;16.56;100.00;98637.53;5033479;28;20200;-61
2022/06/19 00:54:24;;;;;;;4.85;4.50;;;;;;;16.49;100.00;98630.38;5033204;28;20201;-61
2022/06/19 00:56:50;;;;;;;4.90;4.40;;;;;;;16.46;100.00;98630.66;5033148;28;20194;-60
2022/06/19 00:59:17;;;;;;;4.50;4.20;;;;;;;16.43;100.00;98623.06;5033326;28;20560;-60
2022/06/19 01:01:43;;;;;;;4.85;4.22;;;;;;;16.45;100.00;98626.38;5033181;28;20212;-60
2022/06/19 01:04:18;;;;;;;5.82;4.20;;;;;;;16.50;100.00;98630.22;5032983;28;20175;-60
2022/06/19 01:06:43;;;;;;;5.95;4.80;;;;;;;16.47;100.00;98638.34;5015312;28;20158;-60
2022/06/19 01:09:09;;;;;;;6.80;5.10;;;;;;;16.40;100.00;98631.19;5032944;28;20196;-60
2022/06/19 01:11:38;;;;;;;7.13;4.63;;;;;;;16.34;100.00;98629.94;5032888;28;20193;-60
2022/06/19 01:14:07;;;;;;;5.97;4.78;;;;;;;16.30;100.00;98630.31;5032820;28;20177;-60
2022/06/19 01:16:33;;;;;;;4.30;4.10;;;;;;;16.25;100.00;98635.09;5032820;28;20205;-61
2022/06/19 01:19:00;;;;;;;4.60;4.25;;;;;;;16.26;100.00;98639.41;5032966;28;20189;-60
2022/06/19 01:21:47;;;;;;;7.45;4.38;;;;;;;16.15;100.00;98636.91;5032636;28;20531;-60
2022/06/19 01:24:24;;;;;;;5.40;4.85;;;;;;;16.12;100.00;98638.00;5032724;28;20242;-60
2022/06/19 01:26:54;;;;;;;5.20;4.80;;;;;;;16.14;100.00;98637.81;5032718;28;20158;-59
2022/06/19 01:29:20;;;;;;;4.88;4.57;;;;;;;16.06;100.00;98635.91;5032786;28;20213;-60
2022/06/19 01:31:51;;;;;;;6.13;4.30;;;;;;;16.09;100.00;98642.66;5032477;28;20230;-60
2022/06/19 01:34:27;;;;;;;5.15;4.53;;;;;;;16.10;100.00;98647.72;5032520;28;20197;-61
2022/06/19 01:37:21;;;;;;;5.22;4.35;;;;;;;16.06;100.00;98643.75;5032670;28;20190;-60
2022/06/19 01:39:51;;;;;;;4.28;4.03;;;;;;;16.12;100.00;98650.19;5024161;28;20190;-59
2022/06/19 01:42:17;;;;;;;5.03;4.22;;;;;;;16.04;100.00;98642.22;5032328;28;20178;-60
2022/06/19 01:44:44;;;;;;;4.63;4.05;;;;;;;15.97;100.00;98647.13;5032384;28;20647;-60
2022/06/19 01:47:10;;;;;;;4.80;4.40;;;;;;;15.96;100.00;98639.44;5031794;28;20586;-59
2022/06/19 01:49:38;;;;;;;4.75;4.45;;;;;;;15.94;100.00;98647.41;5032262;28;20261;-60
2022/06/19 01:52:05;;;;;;;4.95;4.47;;;;;;;15.90;100.00;98647.78;5032202;28;20197;-59
2022/06/19 01:54:36;;;;;;;5.00;4.60;;;;;;;15.77;100.00;98642.00;5032147;28;20252;-60
2022/06/19 01:57:05;;;;;;;5.30;4.82;;;;;;;15.72;100.00;98646.78;5032375;28;20166;-60
2022/06/19 01:59:32;;;;;;;7.90;4.60;;;;;;;15.65;100.00;98654.31;5032333;28;20182;-60
2022/06/19 02:02:00;;;;;;;5.32;4.72;;;;;;;15.66;100.00;98642.91;5032290;28;20198;-60
2022/06/19 02:04:26;;;;;;;4.88;4.47;;;;;;;15.64;100.00;98639.59;5032030;28;20178;-60
2022/06/19 02:06:55;;;;;;;6.15;4.97;;;;;;;15.59;100.00;98644.41;5032040;28;20232;-60
2022/06/19 02:09:21;;;;;;;8.18;4.47;;;;;;;15.66;100.00;98639.47;5031922;28;20634;-59
2022/06/19 02:11:47;;;;;;;5.07;4.63;;;;;;;15.65;100.00;98640.44;5014243;28;20201;-60
2022/06/19 02:14:14;;;;;;;6.72;5.50;;;;;;;15.66;100.00;98636.84;5032259;28;20178;-60
2022/06/19 02:16:42;;;;;;;6.05;5.03;;;;;;;15.69;100.00;98649.66;5032175;28;20178;-60
2022/06/19 02:19:08;;;;;;;4.65;4.35;;;;;;;15.72;100.00;98644.16;5031935;28;20213;-60
2022/06/19 02:21:38;;;;;;;4.60;4.30;;;;;;;15.72;100.00;98647.59;5031904;28;20558;-60
2022/06/19 02:24:09;;;;;;;5.00;4.57;;;;;;;15.64;100.00;98642.19;5031894;28;20185;-60
2022/06/19 02:26:36;;;;;;;6.70;4.60;;;;;;;15.57;100.00;98645.47;5014203;28;20181;-60
2022/06/19 02:29:03;;;;;;;6.25;4.32;;;;;;;15.61;100.00;98646.84;5031789;28;20174;-60
2022/06/19 02:31:32;;;;;;;4.75;4.45;;;;;;;15.68;100.00;98655.84;5031982;28;20601;-59
2022/06/19 02:34:03;;;;;;;4.57;4.18;;;;;;;15.62;100.00;98659.78;5031933;28;20635;-60
2022/06/19 02:36:36;;;;;;;5.55;4.90;;;;;;;15.64;100.00;98664.88;5031952;28;20188;-60
2022/06/19 02:39:16;;;;;;;5.10;4.60;;;;;;;15.68;100.00;98663.66;5032020;28;20316;-60
2022/06/19 02:41:51;;;;;;;4.65;4.35;;;;;;;15.68;100.00;98663.66;5031715;28;20239;-59
2022/06/19 02:44:16;;;;;;;4.47;4.18;;;;;;;15.61;100.00;98665.94;5031967;28;20224;-60
2022/06/19 02:46:42;;;;;;;5.72;4.55;;;;;;;15.59;100.00;98661.81;5031986;28;20555;-61
2022/06/19 02:49:07;;;;;;;4.43;4.13;;;;;;;15.57;100.00;98655.91;5013907;28;20643;-60
2022/06/19 02:51:33;;;;;;;4.82;4.53;;;;;;;15.53;100.00;98654.50;5031513;28;20206;-60
2022/06/19 02:53:58;;;;;;;4.63;4.32;;;;;;;15.57;100.00;98654.13;5031801;28;20201;-61
2022/06/19 02:56:24;;;;;;;4.68;4.38;;;;;;;15.59;100.00;98654.00;5031837;28;20203;-60
2022/06/19 02:58:49;;;;;;;5.63;4.82;;;;;;;15.49;100.00;98653.09;5032886;28;20178;-60
2022/06/19 03:01:15;;;;;;;6.00;4.53;;;;;;;15.46;100.00;98656.00;5035296;28;20198;-61
2022/06/19 03:03:41;;;;;;;4.85;4.55;;;;;;;15.48;100.00;98648.84;5017505;28;20185;-61
2022/06/19 03:06:07;;;;;;;6.03;5.45;;;;;;;15.49;100.00;98646.13;5035266;28;20170;-61
2022/06/19 03:08:32;;;;;;;4.45;4.07;;;;;;;15.46;100.00;98650.78;5035133;28;20208;-60
2022/06/19 03:10:58;;;;;;;10.13;4.72;;;;;;;15.40;100.00;98651.28;5035627;28;20202;-61
2022/06/19 03:13:25;;;;;;;5.13;4.72;;;;;;;15.41;100.00;98640.75;5035317;28;20178;-61
2022/06/19 03:16:03;;;;;;;6.03;4.57;;;;;;;15.46;100.00;98648.16;5034986;28;20655;-61
2022/06/19 03:18:30;;;;;;;4.95;4.55;;;;;;;15.51;100.00;98646.81;5034930;28;20244;-61
2022/06/19 03:20:56;;;;;;;5.63;4.85;;;;;;;15.57;100.00;98645.47;5035002;28;20174;-61
2022/06/19 03:23:21;;;;;;;4.35;4.05;;;;;;;15.52;100.00;98640.63;5034915;28;20193;-60
2022/06/19 03:25:46;;;;;;;5.07;3.92;;;;;;;15.51;100.00;98638.19;5034909;28;20265;-60
2022/06/19 03:28:12;;;;;;;4.20;3.80;;;;;;;15.57;100.00;98645.47;5034851;28;20174;-61
2022/06/19 03:30:37;;;;;;;4.20;4.00;;;;;;;15.58;100.00;98634.91;5034646;28;20198;-60
2022/06/19 03:33:03;;;;;;;5.45;4.78;;;;;;;15.61;100.00;98644.25;5035031;28;20171;-60
2022/06/19 03:35:29;;;;;;;7.75;4.00;;;;;;;15.64;100.00;98644.00;5034966;28;20233;-60
2022/06/19 03:37:55;;;;;;;4.85;4.40;;;;;;;15.73;100.00;98651.03;5035023;28;20178;-61
2022/06/19 03:40:20;;;;;;;5.18;4.78;;;;;;;15.80;100.00;98646.97;5034640;28;20181;-60
2022/06/19 03:42:45;;;;;;;4.93;4.35;;;;;;;15.79;100.00;98637.44;5034538;28;20181;-60
2022/06/19 03:45:11;;;;;;;4.45;4.05;;;;;;;15.90;100.00;98645.19;5034963;28;20174;-60
2022/06/19 03:47:36;;;;;;;4.97;4.07;;;;;;;15.90;100.00;98647.78;5034509;28;20209;-60
2022/06/19 03:50:03;;;;;;;6.80;4.18;;;;;;;15.96;100.00;98650.72;5034643;28;20178;-60
2022/06/19 03:52:29;;;;;;;4.55;4.15;;;;;;;15.95;100.00;98645.63;5034657;28;20639;-60
2022/06/19 03:54:55;;;;;;;4.43;4.13;;;;;;;16.06;100.00;98645.53;5016848;28;20182;-60
2022/06/19 03:57:20;;;;;;;4.82;4.10;;;;;;;16.10;100.00;98652.13;5034296;28;20186;-61
2022/06/19 03:59:46;;;;;;;6.38;3.88;;;;;;;16.08;100.00;98646.19;5034299;28;20604;-60
2022/06/19 04:02:11;;;;;;;4.38;4.10;;;;;;;16.11;100.00;98653.78;5034147;28;20764;-60
2022/06/19 04:04:39;;;;;;;4.50;4.10;;;;;;;16.13;100.00;98649.25;5034133;28;20268;-61
2022/06/19 04:07:05;;;;;;;4.47;4.03;;;;;;;16.15;100.00;98645.53;5034380;28;20233;-60
2022/06/19 04:09:30;;;;;;;3.90;3.70;;;;;;;16.27;100.00;98648.88;5033551;28;20272;-61
2022/06/19 04:11:56;;;;;;;7.75;3.95;;;;;;;16.38;100.00;98654.00;5016223;28;20715;-60
2022/06/19 04:14:21;;;;;;;5.85;3.80;;;;;;;16.44;100.00;98656.09;5033978;28;20193;-60
2022/06/19 04:16:46;;;;;;;4.20;3.90;;;;;;;16.45;100.00;98652.50;5033894;28;20232;-60
2022/06/19 04:19:12;;;;;;;4.60;4.20;;;;;;;16.54;100.00;98651.69;5033869;28;20174;-61
2022/06/19 04:21:43;;;;;;;4.63;4.22;;;;;;;16.63;100.00;98666.56;5033942;28;20216;-60
2022/06/19 04:24:11;;;;;;;4.03;3.55;;;;;;;16.74;100.00;98663.81;5034033;28;20182;-60
2022/06/19 04:26:38;;;;;;;3.80;3.50;;;;;;;16.85;100.00;98661.88;5034144;28;20194;-60
2022/06/19 04:29:05;;;;;;;4.82;3.45;;;;;;;16.87;100.00;98669.59;5033653;28;20182;-61
2022/06/19 04:31:30;;;;;;;4.13;3.72;;;;;;;16.93;100.00;98669.03;5015845;28;20201;-60
2022/06/19 04:33:56;;;;;;;3.38;3.17;;;;;;;16.96;100.00;98666.16;5034103;28;20181;-60
2022/06/19 04:36:24;;;;;;;3.47;3.28;;;;;;;16.95;100.00;98669.72;5033583;28;20670;-60
2022/06/19 04:38:51;;;;;;;5.50;3.67;;;;;;;17.00;100.00;98670.13;5033525;28;20174;-60
2022/06/19 04:41:19;;;;;;;3.80;3.53;;;;;;;17.05;100.00;98670.53;5033981;28;20170;-60
2022/06/19 04:43:45;;;;;;;5.07;3.85;;;;;;;17.13;100.00;98683.75;5033447;28;20184;-60
2022/06/19 04:46:11;;;;;;;4.43;3.72;;;;;;;17.21;100.00;98670.81;5033428;28;20174;-61
2022/06/19 04:48:37;;;;;;;3.80;3.33;;;;;;;17.33;100.00;98672.28;5015510;28;20189;-60
2022/06/19 04:51:04;;;;;;;3.72;3.53;;;;;;;17.40;100.00;98683.88;5033183;28;20817;-61
2022/06/19 04:53:29;;;;;;;4.22;3.38;;;;;;;17.45;100.00;98685.13;5033109;28;20178;-61
2022/06/19 04:55:55;;;;;;;5.88;3.22;;;;;;;17.50;100.00;98679.47;5015426;28;20178;-61
2022/06/19 04:58:22;;;;;;;5.45;3.38;;;;;;;17.48;100.00;98682.19;5033047;28;20174;-60
2022/06/19 05:00:53;;;;;;;3.50;3.30;;;;;;;17.59;100.00;98678.59;5033317;28;20178;-60
2022/06/19 05:03:20;;;;;;;3.70;3.47;;;;;;;17.62;100.00;98683.56;5032888;28;20166;-61
2022/06/19 05:05:47;;;;;;;3.88;3.63;;;;;;;17.64;100.00;98687.69;5033185;28;20203;-60
2022/06/19 05:08:12;;;;;;;4.20;3.17;;;;;;;17.69;100.00;98679.41;5032954;28;20212;-61
2022/06/19 05:10:38;;;;;;;3.13;3.03;;;;;;;17.80;100.00;98681.84;5032843;28;20687;-60
2022/06/19 05:13:06;;;;;;;3.42;3.13;;;;;;;17.86;100.00;98671.63;5033102;28;20220;-61
2022/06/19 05:15:32;;;;;;;3.40;3.10;;;;;;;17.88;100.00;98689.78;5033095;28;20182;-61
2022/06/19 05:17:58;;;;;;;4.63;3.55;;;;;;;17.91;100.00;98682.50;5032718;28;20170;-61
2022/06/19 05:20:23;;;;;;;5.55;3.22;;;;;;;17.97;100.00;98684.53;5032685;28;20226;-60
2022/06/19 05:22:49;;;;;;;3.30;3.00;;;;;;;17.96;100.00;98685.47;5031773;28;20177;-61
2022/06/19 05:25:15;;;;;;;4.13;3.20;;;;;;;18.06;100.00;98683.66;5032535;28;20189;-61
2022/06/19 05:27:41;;;;;;;3.53;3.28;;;;;;;18.14;100.00;98690.78;5032620;28;20189;-61
2022/06/19 05:30:10;;;;;;;3.83;3.20;;;;;;;18.30;100.00;98675.28;5032487;28;20178;-60
2022/06/19 05:32:35;;;;;;;4.43;3.15;;;;;;;18.34;100.00;98687.13;5032752;28;20646;-61
2022/06/19 05:35:00;;;;;;;3.45;2.88;;;;;;;18.47;100.00;98691.06;5032620;28;20174;-60
2022/06/19 05:37:26;;;;;;;3.72;3.30;;;;;;;18.63;100.00;98691.22;5032565;28;20177;-60
2022/06/19 05:39:51;;;;;;;3.40;3.10;;;;;;;18.69;100.00;98697.66;5032691;28;20173;-61
2022/06/19 05:42:17;;;;;;;3.10;2.90;;;;;;;18.84;100.00;98696.19;5032484;28;20206;-61
2022/06/19 05:44:43;;;;;;;4.20;2.97;;;;;;;18.97;100.00;98696.63;5032493;28;20177;-61
2022/06/19 05:47:09;;;;;;;3.75;3.45;;;;;;;19.13;100.00;98702.03;5032475;28;20662;-61
2022/06/19 05:49:35;;;;;;;6.28;3.30;;;;;;;19.22;100.00;98706.38;5032358;28;20184;-61
2022/06/19 05:52:12;;;;;;;3.30;3.10;;;;;;;19.27;100.00;98702.34;5032162;28;20702;-61
2022/06/19 05:54:38;;;;;;;4.47;3.05;;;;;;;19.47;100.00;98701.16;5032422;28;20169;-61
2022/06/19 05:57:04;;;;;;;3.53;3.30;;;;;;;19.64;100.00;98707.38;5032397;28;20177;-61
2022/06/19 05:59:29;;;;;;;4.28;3.03;;;;;;;19.82;100.00;98706.31;5032151;28;20300;-61
2022/06/19 06:01:54;;;;;;;3.42;3.22;;;;;;;19.94;100.00;98710.31;5032028;28;20201;-61
2022/06/19 06:04:20;;;;;;;3.47;3.25;;;;;;;20.04;100.00;98704.97;5032065;28;20169;-61
2022/06/19 06:06:45;;;;;;;4.28;3.38;;;;;;;20.22;100.00;98700.50;5032042;28;20178;-61
2022/06/19 06:09:13;;;;;;;4.68;3.50;;;;;;;20.35;100.00;98703.50;5031942;28;20185;-58
2022/06/19 06:11:39;;;;;;;6.65;3.30;;;;;;;20.46;100.00;98698.75;5014236;28;20208;-58
2022/06/19 06:14:05;;;;;;;3.13;2.92;;;;;;;20.61;100.00;98712.09;5014268;28;20174;-59
2022/06/19 06:16:30;;;;;;;3.35;3.15;;;;;;;20.74;100.00;98715.13;5031885;28;20539;-60
2022/06/19 06:18:55;;;;;;;3.17;2.60;;;;;;;20.89;100.00;98714.34;5031877;28;20173;-60
2022/06/19 06:21:23;;;;;;;4.00;3.60;;;;;;;20.97;100.00;98706.47;5031861;28;20178;-60
2022/06/19 06:23:50;;;;;;;3.80;3.25;;;;;;;21.11;100.00;98708.47;5032160;28;20177;-60
2022/06/19 06:26:21;;;;;;;3.17;2.97;;;;;;;21.24;100.00;98705.31;5031857;28;20181;-60
2022/06/19 06:28:49;;;;;;;3.03;2.70;;;;;;;21.40;100.00;98715.88;5031841;28;20170;-60
2022/06/19 06:31:15;;;;;;;3.15;2.95;;;;;;;21.55;100.00;98712.38;5031730;28;20726;-60
2022/06/19 06:33:41;;;;;;;3.38;3.05;;;;;;;21.66;100.00;98713.84;5034529;28;20182;-60
2022/06/19 06:36:07;;;;;;;5.20;3.30;;;;;;;21.81;99.51;98712.22;5035683;28;20563;-60
2022/06/19 06:38:33;;;;;;;3.20;3.00;;;;;;;21.91;96.29;98718.94;5035510;28;20181;-61
2022/06/19 06:40:59;;;;;;;3.08;2.83;;;;;;;22.04;95.59;98715.78;5035685;28;20169;-60
2022/06/19 06:43:25;;;;;;;3.25;3.05;;;;;;;22.14;96.67;98719.06;5035684;28;20717;-60
2022/06/19 06:45:51;;;;;;;4.47;3.33;;;;;;;22.26;95.96;98701.88;5035651;28;20178;-60
2022/06/19 06:48:17;;;;;;;4.30;3.78;;;;;;;22.34;94.54;98710.56;5035832;28;20643;-60
2022/06/19 06:50:43;;;;;;;4.95;3.22;;;;;;;22.50;93.34;98710.50;5035742;28;20603;-60
2022/06/19 06:53:09;;;;;;;7.82;3.90;;;;;;;22.65;91.46;98705.31;5035611;28;20241;-60
2022/06/19 06:55:43;;;;;;;4.18;3.60;;;;;;;22.75;91.96;98709.41;5035674;28;20561;-60
2022/06/19 06:58:09;;;;;;;3.60;2.75;;;;;;;22.76;89.68;98711.03;5035390;28;20177;-60
2022/06/19 07:00:36;;;;;;;3.10;2.72;;;;;;;22.68;83.81;98716.34;5035330;28;20186;-60
2022/06/19 07:03:01;;;;;;;3.00;2.78;;;;;;;22.75;79.84;98712.03;5035174;28;20274;-60
2022/06/19 07:05:28;;;;;;;4.25;2.60;;;;;;;22.89;78.72;98715.75;5035275;28;20261;-60
2022/06/19 07:07:54;;;;;;;6.18;2.22;;;;;;;23.02;78.50;98716.00;5035259;28;20194;-60
2022/06/19 07:10:19;;;;;;;4.50;2.75;;;;;;;23.10;74.28;98710.66;5035282;28;20205;-60
2022/06/19 07:12:46;;;;;;;2.90;2.63;;;;;;;23.20;69.85;98719.19;5035504;28;20189;-60
2022/06/19 07:15:12;;;;;;;2.53;2.33;;;;;;;23.26;69.72;98719.28;5035116;28;20240;-59
2022/06/19 07:17:37;;;;;;;4.32;2.88;;;;;;;23.35;70.79;98714.75;5035333;28;20178;-60
2022/06/19 07:20:04;;;;;;;3.22;2.88;;;;;;;23.50;70.63;98720.91;5035045;28;20650;-59
2022/06/19 07:22:29;;;;;;;5.80;2.72;;;;;;;23.59;67.36;98725.16;5035182;28;20174;-60
2022/06/19 07:24:55;;;;;;;2.47;2.28;;;;;;;23.67;65.80;98719.78;5035205;28;20650;-60
2022/06/19 07:27:20;;;;;;;4.32;2.33;;;;;;;23.71;64.04;98718.44;5034927;28;20650;-60
2022/06/19 07:29:46;;;;;;;2.50;2.10;;;;;;;23.75;63.68;98726.63;5034840;28;20182;-60
2022/06/19 07:32:13;;;;;;;3.85;2.08;;;;;;;23.75;63.82;98716.03;5034746;28;20198;-59
2022/06/19 07:34:39;;;;;;;4.43;2.30;;;;;;;23.77;61.38;98725.63;5034741;28;20178;-60
2022/06/19 07:37:06;;;;;;;3.20;2.22;;;;;;;23.68;64.01;98725.69;5034702;28;20192;-60
2022/06/19 07:39:32;;;;;;;2.40;2.20;;;;;;;23.74;65.08;98717.03;5034668;28;20681;-60
2022/06/19 07:41:59;;;;;;;2.80;2.47;;;;;;;23.84;60.95;98720.25;5034549;28;20173;-59
2022/06/19 07:44:24;;;;;;;4.10;2.55;;;;;;;23.88;59.54;98719.94;5033695;28;20636;-60
2022/06/19 07:52:17;;;;;;;5.03;2.03;;;;;;;24.07;58.60;98719.41;5034413;28;20205;-59
2022/06/19 07:54:43;;;;;;;2.88;2.00;;;;;;;24.06;57.14;98720.41;5034381;28;20178;-60
2022/06/19 07:57:08;;;;;;;2.15;1.83;;;;;;;24.08;56.25;98727.97;5034345;28;20170;-60
2022/06/19 07:59:33;;;;;;;3.75;1.90;;;;;;;24.13;55.81;98734.53;5034262;28;20181;-60
2022/06/19 08:01:59;;;;;;;3.42;1.65;;;;;;;24.13;53.85;98723.97;5034162;28;20189;-60
2022/06/19 08:04:24;;;;;;;6.65;2.97;;;;;;;24.29;57.28;98719.28;5034218;28;20177;-61
2022/06/19 08:06:50;;;;;;;1.88;1.63;;;;;;;24.39;55.83;98733.88;5034143;28;20228;-60
2022/06/19 08:09:16;;;;;;;4.38;2.22;;;;;;;24.34;57.45;98735.44;5016303;28;20200;-60
2022/06/19 08:11:41;;;;;;;1.70;1.60;;;;;;;24.33;54.99;98726.66;5033984;28;20211;-60
2022/06/19 08:14:06;;;;;;;4.18;1.95;;;;;;;24.38;56.44;98728.78;5034033;28;20269;-60
2022/06/19 08:16:32;;;;;;;3.53;1.88;;;;;;;24.48;54.13;98726.66;5033949;28;20184;-60
2022/06/19 08:18:58;;;;;;;2.92;1.70;;;;;;;24.51;54.50;98735.06;5034008;28;20185;-60
2022/06/19 08:21:23;;;;;;;2.28;1.80;;;;;;;24.58;54.67;98723.78;5033912;28;20168;-60
2022/06/19 08:23:49;;;;;;;1.70;1.60;;;;;;;24.60;53.11;98723.38;5033850;28;20177;-59
2022/06/19 08:26:15;;;;;;;2.15;1.95;;;;;;;24.51;52.94;98721.84;5033708;28;20268;-59
2022/06/19 08:31:15;;;;;;;2.47;1.80;;;;;;;24.45;53.98;98705.88;5034103;28;20296;-60
2022/06/19 08:33:40;;;;;;;3.15;1.80;;;;;;;24.58;53.93;98710.53;5034004;28;20269;-60
2022/06/19 08:36:10;;;;;;;2.70;2.30;;;;;;;24.51;55.77;98713.91;5033547;28;20181;-60
2022/06/19 08:38:40;;;;;;;2.55;1.80;;;;;;;24.55;55.30;98707.22;5033657;28;20177;-60
2022/06/19 08:41:43;;;;;;;1.73;1.63;;;;;;;24.54;56.27;98702.94;5033690;28;20166;-60
2022/06/19 08:44:30;;;;;;;1.65;1.60;;;;;;;24.62;55.14;98697.53;5034028;28;20587;-60
2022/06/19 08:47:12;;;;;;;4.13;2.05;;;;;;;24.57;56.39;98691.19;5033645;28;20177;-60
2022/06/19 08:49:54;;;;;;;2.05;1.73;;;;;;;24.58;56.54;98696.28;5033341;28;20169;-60
2022/06/19 08:52:52;;;;;;;2.05;1.92;;;;;;;24.55;57.27;98701.13;5015448;28;20202;-60
2022/06/19 08:55:41;;;;;;;2.47;2.33;;;;;;;24.64;56.60;98702.66;5033424;28;20170;-60
2022/06/19 08:58:28;;;;;;;2.05;1.95;;;;;;;24.56;55.17;98695.63;5033364;28;20571;-60
2022/06/19 09:01:07;;;;;;;4.30;2.60;;;;;;;24.56;54.25;98689.53;5033157;28;20239;-59
2022/06/19 09:07:08;;;;;;;3.30;2.47;;;;;;;24.75;55.08;98688.94;5032932;28;20173;-60
2022/06/19 09:09:56;;;;;;;2.72;2.00;;;;;;;24.87;54.74;98682.16;5032831;28;20724;-60
2022/06/19 09:13:08;;;;;;;2.10;1.67;;;;;;;25.02;52.54;98686.38;5032826;28;20189;-60
2022/06/19 09:15:44;;;;;;;1.67;1.50;;;;;;;25.14;50.52;98686.69;5032647;28;20185;-60
2022/06/19 09:18:25;;;;;;;1.45;1.40;;;;;;;25.23;51.58;98691.66;5015043;28;20174;-60
2022/06/19 09:21:16;;;;;;;2.95;1.65;;;;;;;25.24;54.70;98688.03;5032876;28;20244;-60
2022/06/19 09:24:26;;;;;;;2.20;2.00;;;;;;;25.13;49.89;98687.72;5032960;28;20177;-60
2022/06/19 09:27:00;;;;;;;1.73;1.63;;;;;;;25.04;49.69;98689.66;5032694;28;20611;-60
2022/06/19 09:29:52;;;;;;;3.70;1.70;;;;;;;24.82;52.31;98684.53;5014770;28;20178;-60
2022/06/19 09:32:28;;;;;;;6.30;2.25;;;;;;;24.77;53.81;98684.28;5033048;28;20197;-60
2022/06/19 09:35:00;;;;;;;3.25;3.05;;;;;;;24.78;53.18;98686.72;5032579;28;20150;-59
2022/06/19 09:37:56;;;;;;;1.80;1.70;;;;;;;24.63;51.14;98675.38;5032492;28;20216;-59
2022/06/19 09:40:39;;;;;;;1.63;1.52;;;;;;;24.69;52.62;98681.75;5032446;28;20166;-60
2022/06/19 09:43:27;;;;;;;2.88;2.08;;;;;;;24.92;52.67;98672.66;5032632;28;20185;-60
2022/06/19 09:45:59;;;;;;;3.45;1.90;;;;;;;25.18;52.84;98670.22;5032359;28;20597;-60
2022/06/19 09:48:32;;;;;;;1.52;1.42;;;;;;;25.44;52.80;98678.44;5032258;28;20243;-60
2022/06/19 09:51:23;;;;;;;1.73;1.63;;;;;;;25.47;50.86;98674.56;5032133;28;20205;-60
2022/06/19 09:53:58;;;;;;;1.85;1.75;;;;;;;25.55;48.93;98679.75;5032337;28;20202;-60
2022/06/19 09:56:50;;;;;;;2.67;1.70;;;;;;;25.60;51.16;98680.78;5032403;28;20157;-59
2022/06/19 09:59:37;;;;;;;9.75;1.92;;;;;;;25.76;52.28;98677.84;5032585;28;20224;-59
2022/06/19 10:02:14;;;;;;;4.05;1.80;;;;;;;26.00;51.23;98669.44;5032302;28;20217;-58
2022/06/19 10:04:51;;;;;;;2.40;2.20;;;;;;;26.21;49.15;98671.19;5032188;28;20177;-58
2022/06/19 10:07:41;;;;;;;1.58;1.48;;;;;;;26.38;47.65;98659.22;5031633;28;20158;-59
2022/06/19 10:10:34;;;;;;;1.90;1.80;;;;;;;26.59;48.89;98667.09;5031978;28;20220;-60
2022/06/19 10:13:01;;;;;;;1.83;1.73;;;;;;;26.68;47.89;98665.88;5025748;28;20268;-59
2022/06/19 10:15:34;;;;;;;1.80;1.70;;;;;;;26.70;46.97;98659.34;5032193;28;20549;-59
2022/06/19 10:18:24;;;;;;;2.30;1.55;;;;;;;26.79;45.85;98657.34;5014786;28;20216;-59
2022/06/19 10:21:05;;;;;;;2.47;1.60;;;;;;;26.86;46.50;98655.50;5032129;28;20578;-59
2022/06/19 10:23:42;;;;;;;3.53;1.73;;;;;;;26.92;47.16;98646.72;5031905;28;20161;-59
2022/06/19 10:26:14;;;;;;;2.25;1.80;;;;;;;27.05;47.67;98652.06;5031858;28;20179;-61
2022/06/19 10:28:58;;;;;;;24.65;10.35;;;;;;;27.23;46.22;98650.47;5032454;28;20162;-61
2022/06/19 10:31:57;;;;;;;3.33;1.80;;;;;;;27.36;46.77;98655.78;5031967;28;20194;-59
2022/06/19 10:34:43;;;;;;;2.78;1.77;;;;;;;27.54;46.75;98658.66;5031899;28;20168;-59
2022/06/19 10:37:20;;;;;;;2.45;1.63;;;;;;;27.60;48.72;98647.19;5032092;28;20162;-60
2022/06/19 10:40:02;;;;;;;3.92;2.08;;;;;;;27.65;47.61;98644.69;5031733;28;20227;-60
2022/06/19 10:42:57;;;;;;;2.33;1.52;;;;;;;27.67;45.74;98637.34;5031848;28;20150;-60
2022/06/19 10:45:50;;;;;;;1.73;1.63;;;;;;;27.59;46.72;98642.88;5031236;28;20285;-61
2022/06/19 10:48:38;;;;;;;4.18;1.60;;;;;;;27.86;46.16;98646.34;5025798;28;20218;-61
2022/06/19 10:51:08;;;;;;;3.45;1.40;;;;;;;27.95;43.92;98645.91;5031786;28;20182;-60
2022/06/19 10:54:01;;;;;;;1.77;1.67;;;;;;;28.19;42.93;98631.91;5031759;28;20241;-61
2022/06/19 10:56:33;;;;;;;1.20;1.13;;;;;;;28.45;41.50;98639.00;5031651;28;20158;-60
2022/06/19 10:58:59;;;;;;;2.72;1.40;;;;;;;28.64;42.35;98620.25;5031612;28;20169;-60
2022/06/19 11:04:18;;;;;;;3.95;1.75;;;;;;;29.02;43.72;98629.03;5032174;28;20212;-60
2022/06/19 11:07:01;;;;;;;2.42;1.30;;;;;;;29.15;41.46;98636.13;5031548;28;20158;-60
2022/06/19 11:09:49;;;;;;;1.60;1.50;;;;;;;29.24;41.81;98632.97;5031412;28;20190;-60
2022/06/19 11:12:33;;;;;;;3.08;1.35;;;;;;;29.10;40.28;98623.41;5031693;28;20194;-60
2022/06/19 11:15:23;;;;;;;1.63;1.35;;;;;;;29.10;37.62;98625.28;5031580;28;20162;-61
2022/06/19 11:17:49;;;;;;;3.90;1.42;;;;;;;28.98;38.77;98621.69;5031472;28;20163;-60
2022/06/19 11:20:27;;;;;;;2.38;1.33;;;;;;;29.16;38.90;98630.53;5032977;28;20185;-61
2022/06/19 11:23:17;;;;;;;1.95;1.00;;;;;;;29.32;37.87;98619.34;5034950;28;20177;-60
2022/06/19 11:25:55;;;;;;;3.00;1.30;;;;;;;29.75;35.70;98619.38;5035193;28;20166;-61
2022/06/19 11:28:21;;;;;;;3.80;1.35;;;;;;;30.03;35.94;98617.00;5035229;28;20553;-61
2022/06/19 11:31:06;;;;;;;0.95;0.93;;;;;;;30.16;33.86;98616.88;5034976;28;20743;-61
2022/06/19 11:33:36;;;;;;;1.50;1.40;;;;;;;30.00;35.42;98607.59;5035248;28;20240;-61
2022/06/19 11:36:08;;;;;;;1.65;1.17;;;;;;;30.07;37.45;98620.88;5034871;28;20188;-61
2022/06/19 11:38:44;;;;;;;1.10;1.00;;;;;;;30.04;37.13;98618.63;5035134;28;20182;-60
2022/06/19 11:41:21;;;;;;;1.95;1.02;;;;;;;30.05;38.59;98615.75;5034847;28;20150;-61
2022/06/19 11:44:01;;;;;;;1.67;1.58;;;;;;;30.09;36.65;98616.94;5035126;28;20256;-61
2022/06/19 11:46:27;;;;;;;1.58;1.00;;;;;;;30.06;38.28;98616.53;5034841;28;20160;-60
2022/06/19 11:48:53;;;;;;;1.50;1.40;;;;;;;30.22;38.62;98603.47;5034792;28;20173;-60
2022/06/19 11:51:22;;;;;;;1.40;1.30;;;;;;;30.03;39.79;98609.81;5034481;28;20204;-61
2022/06/19 11:53:55;;;;;;;3.50;1.27;;;;;;;29.67;39.90;98606.34;5034548;28;20255;-60
2022/06/19 11:56:37;;;;;;;2.25;1.10;;;;;;;29.76;38.35;98605.81;5016616;28;20709;-61
2022/06/19 11:59:31;;;;;;;5.00;1.30;;;;;;;29.90;37.44;98601.94;5034358;28;20654;-61